OKBK METAR : OKBK 232200Z 01006KT CAVOK 24/07 Q1012 NOSIG